Shafter, Nevada
Current Conditions -  °F | °C
As of 10:55 PM on Saturday 25 Oct 2014 (Local Time) from KENV Reporting Station
Clear Clear  
Wind Chill: 63°   Ceiling: Unl
Heat Index: 63°   Visibility: 10mi
Dew Point: 32°   Wind: 16mph
Humidity: 32%   Direction: 280°W
Pressure: 29.92"   Gusts: NA
Location:  41.0114°N, 114.57°W
Report Text: KENV 260555Z AUTO 28014KT 10SM CLR 17/00 A2992 RMK AO1 WSHFT 30 10240 20170 52024
Loading
Personal Weather Stations






























Interactive Weather Map
Tropical Storm Tracking
New forecast layout! Learn more

10-Day Weather Forecast

Advertisements
Track Severe Weather on mobile